Time;durP1;ratioP1;P1;durP2;ratioP2;P2;SDS_P1;SDS_P2;PMS_P1;PMS_P2;Temp;Humidity;BMP_temperature;BMP_pressure;BME280_temperature;BME280_humidity;BME280_pressure;Samples;Min_cycle;Max_cycle;Signal;HPM_P1;HPM_P2
2021/12/16 00:07:19;0.00;0.00;0.62;0.00;0.00;0.62;3.33;2.60;;;21.80;30.10;;;;;;2257736;61;20774;-65
2021/12/16 00:31:49;0.00;0.00;0.62;0.00;0.00;0.62;6.83;5.60;;;21.90;30.60;;;;;;2257516;61;20390;-63
2021/12/16 00:34:23;0.00;0.00;0.62;0.00;0.00;0.62;5.67;5.10;;;21.90;30.00;;;;;;2257641;61;20358;-66
2021/12/16 00:37:08;0.00;0.00;0.62;0.00;0.00;0.62;6.70;5.30;;;21.90;30.00;;;;;;2256977;61;20744;-66
2021/12/16 00:39:53;0.00;0.00;0.62;0.00;0.00;0.62;7.33;6.07;;;21.90;29.90;;;;;;2257817;61;20363;-65
2021/12/16 00:42:55;0.00;0.00;0.62;0.00;0.00;0.62;7.00;5.67;;;21.80;29.90;;;;;;2257786;61;20432;-62
2021/12/16 00:54:35;0.00;0.00;0.62;0.00;0.00;0.62;9.57;6.87;;;21.80;29.80;;;;;;2257576;61;20410;-64
2021/12/16 00:57:20;0.00;0.00;0.62;0.00;0.00;0.62;7.43;6.30;;;21.70;29.70;;;;;;2257960;61;20363;-65
2021/12/16 01:00:12;0.00;0.00;0.62;0.00;0.00;0.62;7.33;6.53;;;21.80;29.80;;;;;;2257038;61;20390;-65
2021/12/16 01:03:18;0.00;0.00;0.62;0.00;0.00;0.62;10.00;7.10;;;21.80;29.80;;;;;;2257337;61;20398;-64
2021/12/16 01:34:39;0.00;0.00;0.62;0.00;0.00;0.62;7.70;6.77;;;21.60;29.60;;;;;;2257250;61;20502;-63
2021/12/16 01:55:02;0.00;0.00;0.62;0.00;0.00;0.62;6.40;5.80;;;21.60;29.70;;;;;;2257122;61;20637;-63
2021/12/16 01:57:53;0.00;0.00;0.62;0.00;0.00;0.62;6.90;5.60;;;21.60;29.70;;;;;;2257255;61;20382;-65
2021/12/16 02:00:56;0.00;0.00;0.62;0.00;0.00;0.62;7.33;5.40;;;21.50;29.50;;;;;;2257203;61;20711;-65
2021/12/16 02:03:49;0.00;0.00;0.62;0.00;0.00;0.62;6.00;5.20;;;21.50;29.50;;;;;;2257146;61;20439;-63
2021/12/16 02:09:37;0.00;0.00;0.62;0.00;0.00;0.62;6.40;5.40;;;21.50;29.50;;;;;;2257193;61;20394;-63
2021/12/16 02:12:50;0.00;0.00;0.62;0.00;0.00;0.62;5.30;4.77;;;21.50;29.50;;;;;;2257021;61;20398;-64
2021/12/16 02:28:08;0.00;0.00;0.62;0.00;0.00;0.62;5.70;4.77;;;21.40;29.40;;;;;;2256723;61;20406;-65
2021/12/16 02:34:24;0.00;0.00;0.62;0.00;0.00;0.62;5.87;4.80;;;21.40;29.40;;;;;;2256929;61;20366;-64
2021/12/16 02:37:17;0.00;0.00;0.62;0.00;0.00;0.62;5.30;4.80;;;21.40;29.40;;;;;;2256815;61;20398;-64
2021/12/16 02:40:08;0.00;0.00;0.62;0.00;0.00;0.62;5.37;4.83;;;21.40;29.40;;;;;;2257038;61;20589;-65
2021/12/16 02:43:03;0.00;0.00;0.62;0.00;0.00;0.62;5.70;4.73;;;21.40;29.40;;;;;;2256669;61;20363;-65
2021/12/16 02:48:51;0.00;0.00;0.62;0.00;0.00;0.62;5.40;4.77;;;21.30;29.40;;;;;;2256885;61;20361;-65
2021/12/16 02:51:39;0.00;0.00;0.62;0.00;0.00;0.62;4.87;4.37;;;21.30;29.40;;;;;;2255977;61;20418;-62
2021/12/16 02:54:27;0.00;0.00;0.62;0.00;0.00;0.62;6.03;4.93;;;21.30;29.40;;;;;;2257747;61;20382;-63
2021/12/16 02:57:13;0.00;0.00;0.62;0.00;0.00;0.62;5.10;4.60;;;21.30;29.40;;;;;;2257689;61;20598;-64
2021/12/16 02:59:57;0.00;0.00;0.62;0.00;0.00;0.62;5.60;4.87;;;21.30;29.40;;;;;;2257656;61;20393;-64
2021/12/16 03:02:47;0.00;0.00;0.62;0.00;0.00;0.62;7.20;4.07;;;21.30;29.40;;;;;;2258167;61;20358;-63
2021/12/16 03:05:33;0.00;0.00;0.62;0.00;0.00;0.62;6.37;5.47;;;21.30;29.40;;;;;;2257160;61;20378;-66
2021/12/16 03:08:18;0.00;0.00;0.62;0.00;0.00;0.62;8.00;6.07;;;21.30;29.40;;;;;;2257823;61;20358;-63
2021/12/16 03:17:16;0.00;0.00;0.62;0.00;0.00;0.62;5.80;5.13;;;21.30;29.30;;;;;;2257688;61;20382;-63
2021/12/16 03:20:09;0.00;0.00;0.62;0.00;0.00;0.62;6.80;5.50;;;21.20;29.30;;;;;;2257339;61;20366;-66
2021/12/16 03:23:10;0.00;0.00;0.62;0.00;0.00;0.62;7.93;4.80;;;21.20;29.30;;;;;;2258108;61;20771;-64
2021/12/16 03:26:26;0.00;0.00;0.62;0.00;0.00;0.62;7.27;6.50;;;21.20;29.30;;;;;;2257558;61;20394;-66
2021/12/16 03:38:10;0.00;0.00;0.62;0.00;0.00;0.62;6.90;6.20;;;21.20;29.40;;;;;;2257644;61;20355;-66
2021/12/16 03:40:56;0.00;0.00;0.62;0.00;0.00;0.62;7.13;6.10;;;21.20;29.40;;;;;;2257951;61;20375;-65
2021/12/16 03:43:41;0.00;0.00;0.62;0.00;0.00;0.62;6.33;5.00;;;21.20;29.40;;;;;;2256938;61;20436;-65
2021/12/16 03:46:32;0.00;0.00;0.62;0.00;0.00;0.62;7.13;5.93;;;21.20;29.40;;;;;;2257604;61;20386;-64
2021/12/16 03:49:25;0.00;0.00;0.62;0.00;0.00;0.62;6.80;6.10;;;21.20;29.40;;;;;;2256984;61;20479;-63
2021/12/16 03:52:11;0.00;0.00;0.62;0.00;0.00;0.62;8.07;6.37;;;21.20;29.40;;;;;;2254757;61;20609;-64
2021/12/16 03:54:59;0.00;0.00;0.62;0.00;0.00;0.62;7.70;6.77;;;21.10;29.30;;;;;;2257324;61;20426;-65
2021/12/16 03:57:44;0.00;0.00;0.62;0.00;0.00;0.62;7.57;6.50;;;21.10;29.40;;;;;;2257217;61;20471;-61
2021/12/16 04:00:43;0.00;0.00;0.62;0.00;0.00;0.62;8.57;7.00;;;21.10;29.40;;;;;;2257614;61;20394;-63
2021/12/16 04:03:29;0.00;0.00;0.62;0.00;0.00;0.62;9.00;6.63;;;21.10;29.40;;;;;;2257056;61;20581;-65
2021/12/16 04:06:17;0.00;0.00;0.62;0.00;0.00;0.62;7.07;6.37;;;21.10;29.40;;;;;;2257518;61;20394;-65
2021/12/16 04:09:04;0.00;0.00;0.62;0.00;0.00;0.62;6.60;6.00;;;21.10;29.40;;;;;;2257466;61;20367;-64
2021/12/16 04:12:07;0.00;0.00;0.62;0.00;0.00;0.62;6.90;6.00;;;21.10;29.40;;;;;;2257026;61;20406;-64
2021/12/16 04:14:56;0.00;0.00;0.62;0.00;0.00;0.62;6.60;6.00;;;21.10;29.50;;;;;;2257363;61;20402;-65
2021/12/16 04:17:46;0.00;0.00;0.62;0.00;0.00;0.62;7.43;6.30;;;21.10;29.50;;;;;;2257402;61;20362;-62
2021/12/16 04:20:32;0.00;0.00;0.62;0.00;0.00;0.62;7.90;6.33;;;21.10;29.50;;;;;;2257139;61;20363;-64
2021/12/16 04:23:18;0.00;0.00;0.62;0.00;0.00;0.62;8.53;6.87;;;21.10;29.50;;;;;;2257454;61;20377;-62
2021/12/16 04:26:04;0.00;0.00;0.62;0.00;0.00;0.62;9.20;6.97;;;21.10;29.50;;;;;;2257292;61;20398;-66
2021/12/16 04:28:50;0.00;0.00;0.62;0.00;0.00;0.62;8.40;7.30;;;21.10;29.50;;;;;;2257379;61;20387;-63
2021/12/16 04:31:36;0.00;0.00;0.62;0.00;0.00;0.62;7.97;7.00;;;21.10;30.00;;;;;;2257386;61;20770;-63
2021/12/16 04:34:21;0.00;0.00;0.62;0.00;0.00;0.62;9.40;7.50;;;21.10;29.60;;;;;;2256864;61;20678;-64
2021/12/16 04:37:07;0.00;0.00;0.62;0.00;0.00;0.62;9.20;6.90;;;21.10;29.50;;;;;;2257517;61;20451;-63
2021/12/16 04:39:52;0.00;0.00;0.62;0.00;0.00;0.62;8.50;7.37;;;21.10;29.50;;;;;;2257207;61;20435;-66
2021/12/16 04:42:38;0.00;0.00;0.62;0.00;0.00;0.62;10.10;7.30;;;21.10;29.50;;;;;;2256779;61;20359;-65
2021/12/16 04:45:23;0.00;0.00;0.62;0.00;0.00;0.62;8.13;7.23;;;21.10;29.60;;;;;;2257488;61;20463;-63
2021/12/16 04:48:09;0.00;0.00;0.62;0.00;0.00;0.62;10.23;8.50;;;21.10;29.60;;;;;;2257065;61;20706;-63
2021/12/16 04:50:58;0.00;0.00;0.62;0.00;0.00;0.62;8.60;7.70;;;21.10;29.60;;;;;;2257128;61;20371;-64
2021/12/16 04:53:47;0.00;0.00;0.62;0.00;0.00;0.62;9.70;8.47;;;21.10;29.60;;;;;;2257204;61;20354;-63
2021/12/16 04:56:34;0.00;0.00;0.62;0.00;0.00;0.62;11.67;8.87;;;21.10;29.70;;;;;;2256895;61;20366;-64
2021/12/16 04:59:28;0.00;0.00;0.62;0.00;0.00;0.62;10.90;8.30;;;21.10;29.70;;;;;;2257356;61;20777;-65
2021/12/16 05:02:16;0.00;0.00;0.62;0.00;0.00;0.62;9.67;8.67;;;21.10;29.70;;;;;;2257007;61;20379;-63
2021/12/16 05:05:25;0.00;0.00;0.62;0.00;0.00;0.62;10.80;8.73;;;21.00;29.60;;;;;;2256960;61;20397;-63
2021/12/16 05:08:10;0.00;0.00;0.62;0.00;0.00;0.62;10.20;8.53;;;21.00;29.70;;;;;;2257164;61;20367;-65
2021/12/16 05:11:03;0.00;0.00;0.62;0.00;0.00;0.62;11.27;9.53;;;21.00;29.70;;;;;;2256751;61;20625;-66
2021/12/16 05:13:50;0.00;0.00;0.62;0.00;0.00;0.62;12.97;11.27;;;21.00;29.70;;;;;;2257253;61;20471;-63
2021/12/16 05:16:38;0.00;0.00;0.62;0.00;0.00;0.62;14.80;12.00;;;21.00;29.80;;;;;;2257290;61;20475;-63
2021/12/16 05:19:23;0.00;0.00;0.62;0.00;0.00;0.62;11.80;9.80;;;21.00;29.80;;;;;;2256950;61;20662;-65
2021/12/16 05:25:23;0.00;0.00;0.62;0.00;0.00;0.62;11.57;10.23;;;21.00;29.90;;;;;;2257087;61;20410;-62
2021/12/16 05:28:10;0.00;0.00;0.62;0.00;0.00;0.62;10.00;9.00;;;21.00;29.90;;;;;;2256917;61;20363;-61
2021/12/16 05:30:56;0.00;0.00;0.62;0.00;0.00;0.62;12.17;10.47;;;21.00;29.90;;;;;;2257069;61;20383;-64
2021/12/16 05:33:41;0.00;0.00;0.62;0.00;0.00;0.62;12.33;10.07;;;21.00;29.90;;;;;;2256628;61;20386;-62
2021/12/16 05:36:27;0.00;0.00;0.62;0.00;0.00;0.62;10.30;8.07;;;21.00;30.50;;;;;;2257016;61;20425;-62
2021/12/16 05:39:14;0.00;0.00;0.62;0.00;0.00;0.62;12.10;10.30;;;21.00;29.90;;;;;;2257112;61;20363;-68
2021/12/16 05:42:16;0.00;0.00;0.62;0.00;0.00;0.62;14.60;12.43;;;21.00;30.00;;;;;;2256765;61;20362;-66
2021/12/16 05:45:07;0.00;0.00;0.62;0.00;0.00;0.62;15.13;11.40;;;20.90;30.00;;;;;;2257049;61;20502;-64
2021/12/16 05:47:53;0.00;0.00;0.62;0.00;0.00;0.62;11.57;10.37;;;20.90;30.00;;;;;;2256882;61;20449;-65
2021/12/16 05:50:41;0.00;0.00;0.62;0.00;0.00;0.62;10.93;9.80;;;21.00;30.00;;;;;;2256898;61;20390;-65
2021/12/16 05:53:27;0.00;0.00;0.62;0.00;0.00;0.62;11.83;9.10;;;20.90;30.00;;;;;;2257251;61;20418;-64
2021/12/16 05:56:13;0.00;0.00;0.62;0.00;0.00;0.62;11.63;10.43;;;20.90;30.00;;;;;;2256596;61;20402;-65
2021/12/16 05:58:59;0.00;0.00;0.62;0.00;0.00;0.62;10.13;9.03;;;20.90;30.00;;;;;;2257198;61;20731;-65
2021/12/16 06:01:47;0.00;0.00;0.62;0.00;0.00;0.62;10.23;9.13;;;20.90;30.00;;;;;;2256970;61;20761;-64
2021/12/16 06:04:33;0.00;0.00;0.62;0.00;0.00;0.62;10.40;9.40;;;20.90;30.00;;;;;;2256244;61;20394;-65
2021/12/16 06:07:25;0.00;0.00;0.62;0.00;0.00;0.62;10.77;8.90;;;20.90;30.00;;;;;;2257318;61;20406;-67
2021/12/16 06:10:27;0.00;0.00;0.62;0.00;0.00;0.62;15.13;12.90;;;20.90;30.00;;;;;;2256691;61;20375;-64
2021/12/16 06:13:12;0.00;0.00;0.62;0.00;0.00;0.62;16.87;12.90;;;20.90;30.00;;;;;;2257361;61;20437;-65
2021/12/16 06:22:38;0.00;0.00;0.62;0.00;0.00;0.62;11.00;9.07;;;20.90;30.10;;;;;;2257392;61;20410;-65
2021/12/16 06:28:36;0.00;0.00;0.62;0.00;0.00;0.62;14.47;11.00;;;20.90;30.20;;;;;;2256518;61;20373;-65
2021/12/16 06:31:21;0.00;0.00;0.62;0.00;0.00;0.62;14.40;11.60;;;20.90;30.20;;;;;;2257528;61;20547;-69
2021/12/16 06:34:08;0.00;0.00;0.62;0.00;0.00;0.62;15.00;11.90;;;20.90;30.20;;;;;;2257647;61;20417;-66
2021/12/16 06:36:53;0.00;0.00;0.62;0.00;0.00;0.62;19.83;11.67;;;20.90;30.20;;;;;;2258263;61;20367;-66
2021/12/16 06:39:37;0.00;0.00;0.62;0.00;0.00;0.62;16.70;13.70;;;20.90;30.30;;;;;;2257175;61;20386;-66
2021/12/16 06:42:41;0.00;0.00;0.62;0.00;0.00;0.62;15.10;12.53;;;20.90;30.30;;;;;;2257777;61;20359;-65
2021/12/16 06:45:31;0.00;0.00;0.62;0.00;0.00;0.62;16.93;13.00;;;20.90;30.30;;;;;;2257729;61;20382;-66
2021/12/16 06:48:20;0.00;0.00;0.62;0.00;0.00;0.62;12.70;10.97;;;20.90;30.30;;;;;;2257760;61;20490;-65
2021/12/16 06:51:12;0.00;0.00;0.62;0.00;0.00;0.62;14.87;13.23;;;20.80;30.20;;;;;;2258152;61;20355;-65
2021/12/16 06:54:06;0.00;0.00;0.62;0.00;0.00;0.62;14.40;12.53;;;20.80;30.30;;;;;;2257853;61;20366;-62
2021/12/16 06:57:06;0.00;0.00;0.62;0.00;0.00;0.62;14.03;10.90;;;20.80;30.30;;;;;;2258213;61;20434;-65
2021/12/16 07:00:11;0.00;0.00;0.62;0.00;0.00;0.62;11.83;9.93;;;20.90;30.40;;;;;;2258275;61;20478;-64
2021/12/16 07:03:01;0.00;0.00;0.62;0.00;0.00;0.62;10.90;8.97;;;20.90;30.40;;;;;;2257770;61;20577;-64
2021/12/16 07:05:49;0.00;0.00;0.62;0.00;0.00;0.62;10.57;8.47;;;20.90;30.40;;;;;;2258224;61;20382;-64
2021/12/16 07:08:36;0.00;0.00;0.62;0.00;0.00;0.62;8.13;7.33;;;20.90;30.40;;;;;;2257921;61;20876;-64
2021/12/16 07:11:21;0.00;0.00;0.62;0.00;0.00;0.62;10.17;7.20;;;20.90;30.40;;;;;;2257812;61;20366;-64
2021/12/16 07:14:05;0.00;0.00;0.62;0.00;0.00;0.62;8.03;7.23;;;20.90;30.30;;;;;;2257919;61;20434;-64
2021/12/16 07:16:56;0.00;0.00;0.62;0.00;0.00;0.62;7.67;6.87;;;21.00;30.40;;;;;;2257656;61;20410;-64
2021/12/16 07:19:43;0.00;0.00;0.62;0.00;0.00;0.62;6.60;6.00;;;21.00;30.40;;;;;;2258072;61;20358;-64
2021/12/16 07:22:27;0.00;0.00;0.62;0.00;0.00;0.62;7.10;6.40;;;21.00;30.30;;;;;;2257999;61;20355;-63
2021/12/16 07:25:14;0.00;0.00;0.62;0.00;0.00;0.62;5.97;5.37;;;21.00;30.30;;;;;;2257484;61;20430;-64
2021/12/16 07:27:58;0.00;0.00;0.62;0.00;0.00;0.62;6.07;5.53;;;21.10;30.40;;;;;;2258070;61;20418;-63
2021/12/16 07:30:46;0.00;0.00;0.62;0.00;0.00;0.62;6.17;5.60;;;21.10;30.30;;;;;;2257886;61;20366;-63
2021/12/16 07:33:30;0.00;0.00;0.62;0.00;0.00;0.62;6.37;5.77;;;21.10;30.30;;;;;;2257590;61;20387;-63
2021/12/16 07:36:18;0.00;0.00;0.62;0.00;0.00;0.62;5.80;5.30;;;21.10;30.20;;;;;;2257930;61;20390;-66
2021/12/16 07:39:06;0.00;0.00;0.62;0.00;0.00;0.62;5.10;4.60;;;21.10;30.20;;;;;;2257585;61;20402;-65
2021/12/16 07:41:53;0.00;0.00;0.62;0.00;0.00;0.62;4.70;4.30;;;21.20;30.30;;;;;;2257876;61;20370;-65
2021/12/16 07:44:38;0.00;0.00;0.62;0.00;0.00;0.62;4.97;4.47;;;21.20;30.20;;;;;;2257895;61;20382;-65
2021/12/16 07:47:23;0.00;0.00;0.62;0.00;0.00;0.62;5.57;4.87;;;21.20;30.20;;;;;;2257570;61;20451;-65
2021/12/16 07:50:09;0.00;0.00;0.62;0.00;0.00;0.62;5.27;4.53;;;21.20;30.20;;;;;;2257923;61;20608;-64
2021/12/16 07:52:54;0.00;0.00;0.62;0.00;0.00;0.62;5.60;5.00;;;21.20;30.10;;;;;;2257948;61;20402;-65
2021/12/16 07:55:41;0.00;0.00;0.62;0.00;0.00;0.62;4.93;4.53;;;21.20;30.10;;;;;;2257403;61;20410;-65
2021/12/16 07:58:27;0.00;0.00;0.62;0.00;0.00;0.62;4.70;4.13;;;21.30;30.20;;;;;;2258152;61;20570;-64
2021/12/16 08:01:11;0.00;0.00;0.62;0.00;0.00;0.62;4.10;3.70;;;21.30;30.20;;;;;;2257440;61;20367;-65
2021/12/16 08:03:58;0.00;0.00;0.62;0.00;0.00;0.62;4.37;3.97;;;21.30;30.10;;;;;;2257781;61;20359;-64
2021/12/16 08:06:44;0.00;0.00;0.62;0.00;0.00;0.62;4.07;3.33;;;21.30;30.10;;;;;;2257979;61;20367;-64
2021/12/16 08:09:29;0.00;0.00;0.62;0.00;0.00;0.62;4.53;4.10;;;21.30;30.00;;;;;;2257423;61;20387;-64
2021/12/16 08:12:16;0.00;0.00;0.62;0.00;0.00;0.62;3.73;3.43;;;21.30;30.00;;;;;;2257858;61;20390;-64
2021/12/16 08:15:04;0.00;0.00;0.62;0.00;0.00;0.62;4.17;3.77;;;21.40;30.10;;;;;;2257656;61;20390;-64
2021/12/16 08:17:49;0.00;0.00;0.62;0.00;0.00;0.62;4.13;3.73;;;21.40;30.10;;;;;;2257475;61;20367;-65
2021/12/16 08:20:34;0.00;0.00;0.62;0.00;0.00;0.62;4.20;3.90;;;21.40;30.00;;;;;;2257486;61;20362;-64
2021/12/16 08:23:18;0.00;0.00;0.62;0.00;0.00;0.62;4.60;4.00;;;21.40;30.00;;;;;;2257273;61;21024;-64
2021/12/16 08:26:03;0.00;0.00;0.62;0.00;0.00;0.62;4.20;3.80;;;21.40;30.00;;;;;;2257838;61;20378;-65
2021/12/16 08:28:48;0.00;0.00;0.62;0.00;0.00;0.62;3.63;3.33;;;21.40;30.00;;;;;;2257913;61;20476;-64
2021/12/16 08:31:35;0.00;0.00;0.62;0.00;0.00;0.62;3.83;3.43;;;21.40;30.00;;;;;;2257446;61;20831;-65
2021/12/16 08:34:19;0.00;0.00;0.62;0.00;0.00;0.62;3.70;3.40;;;21.40;30.00;;;;;;2257721;61;20382;-64
2021/12/16 08:37:06;0.00;0.00;0.62;0.00;0.00;0.62;4.07;3.67;;;21.50;30.00;;;;;;2257691;61;20355;-65
2021/12/16 08:39:51;0.00;0.00;0.62;0.00;0.00;0.62;4.10;3.70;;;21.50;30.00;;;;;;2257421;61;20398;-64
2021/12/16 08:42:36;0.00;0.00;0.62;0.00;0.00;0.62;4.10;3.70;;;21.50;30.00;;;;;;2257798;61;20354;-64
2021/12/16 08:45:25;0.00;0.00;0.62;0.00;0.00;0.62;3.77;3.10;;;21.50;30.00;;;;;;2257087;61;20383;-64
2021/12/16 08:48:13;0.00;0.00;0.62;0.00;0.00;0.62;4.30;3.90;;;21.50;30.00;;;;;;2257400;61;20731;-64
2021/12/16 08:50:58;0.00;0.00;0.62;0.00;0.00;0.62;3.80;3.50;;;21.50;30.00;;;;;;2257499;61;20383;-64
2021/12/16 08:53:43;0.00;0.00;0.62;0.00;0.00;0.62;3.87;3.13;;;21.50;30.00;;;;;;2257276;61;20386;-64
2021/12/16 08:56:29;0.00;0.00;0.62;0.00;0.00;0.62;3.43;3.13;;;21.50;30.00;;;;;;2257734;61;20817;-64
2021/12/16 08:59:14;0.00;0.00;0.62;0.00;0.00;0.62;4.10;3.70;;;21.60;30.00;;;;;;2257483;61;20433;-64
2021/12/16 09:02:01;0.00;0.00;0.62;0.00;0.00;0.62;4.13;3.43;;;21.60;30.00;;;;;;2257473;61;20576;-65
2021/12/16 09:04:47;0.00;0.00;0.62;0.00;0.00;0.62;3.33;3.03;;;21.60;30.00;;;;;;2257266;61;20394;-64
2021/12/16 09:07:32;0.00;0.00;0.62;0.00;0.00;0.62;3.77;2.90;;;21.60;29.90;;;;;;2257157;61;20431;-64
2021/12/16 09:10:22;0.00;0.00;0.62;0.00;0.00;0.62;3.40;3.10;;;21.60;29.90;;;;;;2257727;61;20407;-64
2021/12/16 09:13:12;0.00;0.00;0.62;0.00;0.00;0.62;3.30;2.73;;;21.60;29.90;;;;;;2257682;61;20667;-64
2021/12/16 09:16:03;0.00;0.00;0.62;0.00;0.00;0.62;2.70;2.47;;;21.60;29.90;;;;;;2257370;61;20483;-65
2021/12/16 09:18:48;0.00;0.00;0.62;0.00;0.00;0.62;3.20;2.90;;;21.60;29.90;;;;;;2257783;61;20374;-64
2021/12/16 09:21:37;0.00;0.00;0.62;0.00;0.00;0.62;2.83;2.50;;;21.60;29.90;;;;;;2257568;61;20355;-64
2021/12/16 09:24:22;0.00;0.00;0.62;0.00;0.00;0.62;3.20;2.90;;;21.70;29.90;;;;;;2257186;61;20371;-65
2021/12/16 09:27:07;0.00;0.00;0.62;0.00;0.00;0.62;3.43;2.83;;;21.70;29.90;;;;;;2257650;61;20571;-64
2021/12/16 09:29:53;0.00;0.00;0.62;0.00;0.00;0.62;3.10;2.73;;;21.70;29.90;;;;;;2257192;61;20363;-64
2021/12/16 09:32:38;0.00;0.00;0.62;0.00;0.00;0.62;2.70;2.50;;;21.70;29.90;;;;;;2257676;61;20445;-64
2021/12/16 09:35:24;0.00;0.00;0.62;0.00;0.00;0.62;2.83;2.57;;;21.70;29.90;;;;;;2257602;61;20422;-63
2021/12/16 09:38:13;0.00;0.00;0.62;0.00;0.00;0.62;2.83;2.53;;;21.70;29.90;;;;;;2257251;61;20359;-63
2021/12/16 09:40:57;0.00;0.00;0.62;0.00;0.00;0.62;2.70;2.50;;;21.70;29.90;;;;;;2257406;61;20379;-66
2021/12/16 09:43:46;0.00;0.00;0.62;0.00;0.00;0.62;4.00;2.70;;;21.70;29.90;;;;;;2257197;61;20696;-63
2021/12/16 09:46:31;0.00;0.00;0.62;0.00;0.00;0.62;2.73;2.53;;;21.70;29.80;;;;;;2257266;61;20615;-64
2021/12/16 09:49:17;0.00;0.00;0.62;0.00;0.00;0.62;2.67;2.47;;;21.70;29.80;;;;;;2257500;61;20517;-64
2021/12/16 09:52:05;0.00;0.00;0.62;0.00;0.00;0.62;2.57;2.37;;;21.70;29.80;;;;;;2257138;61;20451;-66
2021/12/16 09:54:51;0.00;0.00;0.62;0.00;0.00;0.62;3.00;2.60;;;21.70;29.80;;;;;;2257443;61;20383;-63
2021/12/16 09:57:36;0.00;0.00;0.62;0.00;0.00;0.62;2.70;2.50;;;21.80;29.90;;;;;;2257461;61;20363;-65
2021/12/16 10:00:27;0.00;0.00;0.62;0.00;0.00;0.62;2.40;2.20;;;21.80;29.90;;;;;;2257488;61;20366;-64
2021/12/16 10:03:12;0.00;0.00;0.62;0.00;0.00;0.62;2.60;2.20;;;21.80;29.80;;;;;;2257501;61;20347;-64
2021/12/16 10:05:57;0.00;0.00;0.62;0.00;0.00;0.62;2.70;2.50;;;21.80;29.80;;;;;;2257454;61;20611;-64
2021/12/16 10:08:43;0.00;0.00;0.62;0.00;0.00;0.62;2.10;1.90;;;21.80;29.80;;;;;;2257275;61;20410;-63
2021/12/16 10:11:31;0.00;0.00;0.62;0.00;0.00;0.62;2.80;2.53;;;21.80;29.80;;;;;;2257587;61;20366;-64
2021/12/16 10:14:31;0.00;0.00;0.62;0.00;0.00;0.62;3.37;2.60;;;21.80;29.80;;;;;;2256991;61;20446;-64
2021/12/16 10:17:24;0.00;0.00;0.62;0.00;0.00;0.62;2.23;2.03;;;21.80;29.80;;;;;;2257084;61;20363;-65
2021/12/16 10:20:16;0.00;0.00;0.62;0.00;0.00;0.62;2.37;2.17;;;21.80;29.80;;;;;;2257522;61;20366;-64
2021/12/16 10:23:04;0.00;0.00;0.62;0.00;0.00;0.62;2.57;2.33;;;21.80;29.80;;;;;;2257201;61;20358;-63
2021/12/16 10:25:52;0.00;0.00;0.62;0.00;0.00;0.62;2.50;2.30;;;21.80;29.80;;;;;;2257418;61;20387;-63
2021/12/16 10:28:41;0.00;0.00;0.62;0.00;0.00;0.62;3.53;2.47;;;21.80;29.80;;;;;;2257098;61;20394;-64
2021/12/16 10:31:30;0.00;0.00;0.62;0.00;0.00;0.62;2.80;2.30;;;21.80;29.80;;;;;;2257332;61;20430;-63
2021/12/16 10:34:15;0.00;0.00;0.62;0.00;0.00;0.62;2.23;2.03;;;21.80;29.80;;;;;;2257460;61;20374;-63
2021/12/16 10:36:59;0.00;0.00;0.62;0.00;0.00;0.62;3.63;2.40;;;21.90;29.80;;;;;;2257093;61;20635;-63
2021/12/16 10:39:44;0.00;0.00;0.62;0.00;0.00;0.62;2.70;2.13;;;21.90;29.80;;;;;;2257605;61;20358;-63
2021/12/16 10:42:43;0.00;0.00;0.62;0.00;0.00;0.62;2.73;2.53;;;21.90;29.80;;;;;;2257448;61;20378;-63
2021/12/16 10:45:35;0.00;0.00;0.62;0.00;0.00;0.62;2.00;1.80;;;21.90;29.80;;;;;;2256512;61;20425;-63
2021/12/16 10:48:26;0.00;0.00;0.62;0.00;0.00;0.62;2.27;1.87;;;21.90;29.80;;;;;;2257635;61;20454;-64
2021/12/16 10:51:21;0.00;0.00;0.62;0.00;0.00;0.62;2.50;2.30;;;21.90;29.80;;;;;;2256985;61;20382;-63
2021/12/16 10:54:22;0.00;0.00;0.62;0.00;0.00;0.62;2.17;1.73;;;21.90;29.80;;;;;;2257382;61;20586;-64
2021/12/16 10:57:09;0.00;0.00;0.62;0.00;0.00;0.62;2.30;2.10;;;21.90;29.70;;;;;;2257489;61;20367;-65
2021/12/16 10:59:58;0.00;0.00;0.62;0.00;0.00;0.62;2.57;2.37;;;21.90;29.70;;;;;;2256811;61;20366;-63
2021/12/16 11:02:45;0.00;0.00;0.62;0.00;0.00;0.62;2.90;2.10;;;21.90;29.70;;;;;;2257584;61;20695;-64
2021/12/16 11:05:30;0.00;0.00;0.62;0.00;0.00;0.62;2.40;2.10;;;21.90;29.70;;;;;;2257132;61;20774;-64
2021/12/16 11:08:14;0.00;0.00;0.62;0.00;0.00;0.62;2.40;2.00;;;21.90;29.70;;;;;;2257290;61;20383;-65
2021/12/16 11:11:00;0.00;0.00;0.62;0.00;0.00;0.62;2.07;1.87;;;22.00;29.70;;;;;;2257543;61;20394;-65
2021/12/16 11:13:44;0.00;0.00;0.62;0.00;0.00;0.62;3.07;2.27;;;22.00;29.70;;;;;;2257184;61;20390;-64
2021/12/16 11:16:31;0.00;0.00;0.62;0.00;0.00;0.62;2.90;2.00;;;22.00;29.70;;;;;;2258128;61;20385;-64
2021/12/16 11:19:45;0.00;0.00;0.62;0.00;0.00;0.62;2.50;2.20;;;21.90;29.60;;;;;;2258072;61;20431;-63
2021/12/16 11:22:36;0.00;0.00;0.62;0.00;0.00;0.62;2.20;2.00;;;21.90;29.70;;;;;;2257845;61;20366;-63
2021/12/16 11:25:27;0.00;0.00;0.62;0.00;0.00;0.62;2.63;2.20;;;22.00;29.70;;;;;;2258032;61;20379;-64
2021/12/16 11:28:20;0.00;0.00;0.62;0.00;0.00;0.62;2.20;1.70;;;22.00;29.70;;;;;;2257625;61;20739;-64
2021/12/16 11:31:07;0.00;0.00;0.62;0.00;0.00;0.62;2.60;2.20;;;22.00;29.70;;;;;;2258042;61;20358;-64
2021/12/16 11:33:56;0.00;0.00;0.62;0.00;0.00;0.62;2.30;1.97;;;22.00;29.70;;;;;;2258100;61;20387;-65
2021/12/16 11:36:45;0.00;0.00;0.62;0.00;0.00;0.62;2.57;2.23;;;22.00;29.70;;;;;;2257677;61;20401;-63
2021/12/16 11:39:30;0.00;0.00;0.62;0.00;0.00;0.62;2.37;2.10;;;22.00;29.60;;;;;;2258112;61;20826;-63
2021/12/16 11:42:14;0.00;0.00;0.62;0.00;0.00;0.62;2.17;1.60;;;22.00;29.60;;;;;;2257894;61;20378;-65
2021/12/16 11:44:59;0.00;0.00;0.62;0.00;0.00;0.62;2.70;2.30;;;22.00;29.60;;;;;;2257103;61;20430;-65
2021/12/16 11:47:55;0.00;0.00;0.62;0.00;0.00;0.62;2.10;1.70;;;22.00;29.60;;;;;;2257623;61;20366;-64
2021/12/16 11:50:44;0.00;0.00;0.62;0.00;0.00;0.62;1.90;1.50;;;22.00;29.60;;;;;;2257534;61;20355;-64
2021/12/16 11:53:37;0.00;0.00;0.62;0.00;0.00;0.62;2.10;1.70;;;22.00;29.60;;;;;;2257451;61;20387;-65
2021/12/16 11:56:42;0.00;0.00;0.62;0.00;0.00;0.62;2.20;2.00;;;22.10;29.70;;;;;;2257810;61;20426;-64
2021/12/16 11:59:34;0.00;0.00;0.62;0.00;0.00;0.62;2.13;1.60;;;22.00;29.50;;;;;;2257607;61;20363;-64
2021/12/16 12:02:26;0.00;0.00;0.62;0.00;0.00;0.62;1.90;1.50;;;22.10;29.60;;;;;;2257810;61;20431;-65
2021/12/16 12:05:22;0.00;0.00;0.62;0.00;0.00;0.62;1.93;1.63;;;22.10;29.60;;;;;;2257374;61;20403;-64
2021/12/16 12:08:10;0.00;0.00;0.62;0.00;0.00;0.62;2.10;1.90;;;22.10;29.60;;;;;;2257912;61;20617;-64
2021/12/16 12:11:00;0.00;0.00;0.62;0.00;0.00;0.62;1.70;1.37;;;22.10;29.60;;;;;;2257553;61;20383;-64
2021/12/16 12:13:48;0.00;0.00;0.62;0.00;0.00;0.62;2.07;1.87;;;22.10;29.60;;;;;;2257363;61;20426;-64
2021/12/16 12:16:36;0.00;0.00;0.62;0.00;0.00;0.62;2.00;1.80;;;22.10;29.50;;;;;;2257908;61;20378;-65
2021/12/16 12:19:24;0.00;0.00;0.62;0.00;0.00;0.62;2.17;1.83;;;22.10;29.50;;;;;;2257983;61;20439;-64
2021/12/16 12:22:09;0.00;0.00;0.62;0.00;0.00;0.62;2.10;1.90;;;22.10;30.00;;;;;;2257653;61;20355;-64
2021/12/16 12:24:53;0.00;0.00;0.62;0.00;0.00;0.62;2.27;2.07;;;22.10;29.50;;;;;;2257687;61;20474;-63
2021/12/16 12:27:39;0.00;0.00;0.62;0.00;0.00;0.62;2.53;1.63;;;22.10;29.50;;;;;;2257459;61;20366;-65
2021/12/16 12:30:24;0.00;0.00;0.62;0.00;0.00;0.62;2.00;1.70;;;22.10;29.50;;;;;;2257745;61;20360;-64
2021/12/16 12:33:08;0.00;0.00;0.62;0.00;0.00;0.62;2.27;1.60;;;22.10;29.50;;;;;;2258052;61;20605;-64
2021/12/16 12:35:53;0.00;0.00;0.62;0.00;0.00;0.62;2.50;2.10;;;22.10;29.50;;;;;;2257236;61;20378;-64
2021/12/16 12:38:38;0.00;0.00;0.62;0.00;0.00;0.62;2.37;1.80;;;22.10;29.50;;;;;;2258024;61;20359;-63
2021/12/16 12:41:22;0.00;0.00;0.62;0.00;0.00;0.62;2.63;2.20;;;22.10;29.50;;;;;;2257821;61;20386;-65
2021/12/16 12:44:08;0.00;0.00;0.62;0.00;0.00;0.62;1.93;1.57;;;22.20;29.50;;;;;;2257170;61;20367;-64
2021/12/16 12:46:54;0.00;0.00;0.62;0.00;0.00;0.62;1.83;1.63;;;22.10;30.00;;;;;;2257977;61;20351;-64
2021/12/16 12:49:39;0.00;0.00;0.62;0.00;0.00;0.62;1.63;1.20;;;22.20;29.50;;;;;;2256927;61;20394;-65
2021/12/16 12:52:26;0.00;0.00;0.62;0.00;0.00;0.62;2.03;1.57;;;22.20;29.50;;;;;;2257719;61;20386;-64
2021/12/16 12:55:15;0.00;0.00;0.62;0.00;0.00;0.62;1.60;1.20;;;22.20;29.50;;;;;;2257800;61;20741;-64
2021/12/16 12:58:06;0.00;0.00;0.62;0.00;0.00;0.62;1.60;1.37;;;22.20;29.50;;;;;;2257434;61;20399;-63
2021/12/16 13:00:55;0.00;0.00;0.62;0.00;0.00;0.62;2.03;1.33;;;22.10;29.40;;;;;;2256919;61;20402;-65
2021/12/16 13:03:41;0.00;0.00;0.62;0.00;0.00;0.62;1.90;1.70;;;22.20;29.50;;;;;;2256236;61;20703;-65
2021/12/16 13:06:26;0.00;0.00;0.62;0.00;0.00;0.62;2.07;1.70;;;22.20;29.50;;;;;;2256383;61;20428;-66
2021/12/16 13:09:29;0.00;0.00;0.62;0.00;0.00;0.62;1.60;1.40;;;22.20;29.50;;;;;;2256194;61;20431;-65
2021/12/16 13:12:46;0.00;0.00;0.62;0.00;0.00;0.62;2.03;1.80;;;22.20;29.50;;;;;;2256061;61;20386;-65
2021/12/16 13:15:47;0.00;0.00;0.62;0.00;0.00;0.62;1.80;1.60;;;22.20;29.40;;;;;;2257790;61;20395;-64
2021/12/16 13:27:45;0.00;0.00;0.62;0.00;0.00;0.62;1.73;1.20;;;22.20;29.40;;;;;;2257288;61;20727;-64